sensor_id;sensor_type;location;lat;lon;timestamp;temperature;humidity
16313;DHT22;8265;52.622;13.296;2022-07-29T00:01:38;14.70;99.90
16313;DHT22;8265;52.622;13.296;2022-07-29T00:06:59;14.80;99.90
16313;DHT22;8265;52.622;13.296;2022-07-29T00:12:21;14.50;99.90
16313;DHT22;8265;52.622;13.296;2022-07-29T00:17:41;14.50;99.90
16313;DHT22;8265;52.622;13.296;2022-07-29T00:23:02;14.40;99.90
16313;DHT22;8265;52.622;13.296;2022-07-29T00:28:23;14.40;99.90
16313;DHT22;8265;52.622;13.296;2022-07-29T00:33:44;14.20;99.90
16313;DHT22;8265;52.622;13.296;2022-07-29T00:39:05;14.20;99.90
16313;DHT22;8265;52.622;13.296;2022-07-29T00:44:26;14.20;99.90
16313;DHT22;8265;52.622;13.296;2022-07-29T00:49:47;14.10;99.90
16313;DHT22;8265;52.622;13.296;2022-07-29T00:55:10;14.10;99.90
16313;DHT22;8265;52.622;13.296;2022-07-29T01:00:29;14.10;99.90
16313;DHT22;8265;52.622;13.296;2022-07-29T01:05:50;14.00;99.90
16313;DHT22;8265;52.622;13.296;2022-07-29T01:11:11;13.90;99.90
16313;DHT22;8265;52.622;13.296;2022-07-29T01:16:33;13.90;99.90
16313;DHT22;8265;52.622;13.296;2022-07-29T01:21:54;13.80;99.90
16313;DHT22;8265;52.622;13.296;2022-07-29T01:27:22;13.80;99.90
16313;DHT22;8265;52.622;13.296;2022-07-29T01:32:35;13.70;99.90
16313;DHT22;8265;52.622;13.296;2022-07-29T01:37:57;13.60;99.90
16313;DHT22;8265;52.622;13.296;2022-07-29T01:43:29;13.60;99.90
16313;DHT22;8265;52.622;13.296;2022-07-29T01:48:40;13.70;99.90
16313;DHT22;8265;52.622;13.296;2022-07-29T01:54:01;13.60;99.90
16313;DHT22;8265;52.622;13.296;2022-07-29T01:59:19;13.60;99.90
16313;DHT22;8265;52.622;13.296;2022-07-29T02:04:40;13.60;99.90
16313;DHT22;8265;52.622;13.296;2022-07-29T02:10:02;13.60;99.90
16313;DHT22;8265;52.622;13.296;2022-07-29T02:15:23;13.60;99.90
16313;DHT22;8265;52.622;13.296;2022-07-29T02:20:45;13.80;99.90
16313;DHT22;8265;52.622;13.296;2022-07-29T02:26:04;13.70;99.90
16313;DHT22;8265;52.622;13.296;2022-07-29T02:31:26;13.60;99.90
16313;DHT22;8265;52.622;13.296;2022-07-29T02:36:46;13.50;99.90
16313;DHT22;8265;52.622;13.296;2022-07-29T02:42:08;13.50;99.90
16313;DHT22;8265;52.622;13.296;2022-07-29T02:47:30;13.50;99.90
16313;DHT22;8265;52.622;13.296;2022-07-29T02:52:52;13.50;99.90
16313;DHT22;8265;52.622;13.296;2022-07-29T02:58:12;13.50;99.90
16313;DHT22;8265;52.622;13.296;2022-07-29T03:03:32;13.60;99.90
16313;DHT22;8265;52.622;13.296;2022-07-29T03:08:52;13.70;99.90
16313;DHT22;8265;52.622;13.296;2022-07-29T03:14:13;13.80;99.90
16313;DHT22;8265;52.622;13.296;2022-07-29T03:19:34;13.90;99.90
16313;DHT22;8265;52.622;13.296;2022-07-29T03:24:55;14.00;99.90
16313;DHT22;8265;52.622;13.296;2022-07-29T03:30:16;14.10;99.90
16313;DHT22;8265;52.622;13.296;2022-07-29T03:35:37;14.10;99.90
16313;DHT22;8265;52.622;13.296;2022-07-29T03:40:58;14.10;99.90
16313;DHT22;8265;52.622;13.296;2022-07-29T03:46:19;14.10;99.90
16313;DHT22;8265;52.622;13.296;2022-07-29T03:51:40;14.00;99.90
16313;DHT22;8265;52.622;13.296;2022-07-29T03:57:01;14.00;99.90
16313;DHT22;8265;52.622;13.296;2022-07-29T04:02:22;13.90;99.90
16313;DHT22;8265;52.622;13.296;2022-07-29T04:07:45;13.90;99.90
16313;DHT22;8265;52.622;13.296;2022-07-29T04:13:04;13.90;99.90
16313;DHT22;8265;52.622;13.296;2022-07-29T04:18:25;14.00;99.90
16313;DHT22;8265;52.622;13.296;2022-07-29T04:23:46;14.00;99.90
16313;DHT22;8265;52.622;13.296;2022-07-29T04:29:06;14.00;99.90
16313;DHT22;8265;52.622;13.296;2022-07-29T04:34:27;14.00;99.90
16313;DHT22;8265;52.622;13.296;2022-07-29T04:39:48;14.10;99.90
16313;DHT22;8265;52.622;13.296;2022-07-29T04:45:10;14.10;99.90
16313;DHT22;8265;52.622;13.296;2022-07-29T04:50:30;14.20;99.90
16313;DHT22;8265;52.622;13.296;2022-07-29T04:55:51;14.40;99.90
16313;DHT22;8265;52.622;13.296;2022-07-29T05:01:12;14.60;99.90
16313;DHT22;8265;52.622;13.296;2022-07-29T05:06:33;14.80;99.90
16313;DHT22;8265;52.622;13.296;2022-07-29T05:11:54;15.10;99.90
16313;DHT22;8265;52.622;13.296;2022-07-29T05:17:15;15.50;99.90
16313;DHT22;8265;52.622;13.296;2022-07-29T05:22:36;15.90;99.90
16313;DHT22;8265;52.622;13.296;2022-07-29T05:27:57;16.30;99.90
16313;DHT22;8265;52.622;13.296;2022-07-29T05:33:18;16.50;99.90
16313;DHT22;8265;52.622;13.296;2022-07-29T05:38:39;16.80;99.90
16313;DHT22;8265;52.622;13.296;2022-07-29T05:44:00;16.70;99.90
16313;DHT22;8265;52.622;13.296;2022-07-29T05:49:21;16.80;99.90
16313;DHT22;8265;52.622;13.296;2022-07-29T05:54:42;17.00;99.90
16313;DHT22;8265;52.622;13.296;2022-07-29T06:00:04;16.80;99.90
16313;DHT22;8265;52.622;13.296;2022-07-29T06:05:24;16.90;99.90
16313;DHT22;8265;52.622;13.296;2022-07-29T06:10:45;17.20;99.90
16313;DHT22;8265;52.622;13.296;2022-07-29T06:16:06;17.60;99.90
16313;DHT22;8265;52.622;13.296;2022-07-29T06:21:27;17.90;99.90
16313;DHT22;8265;52.622;13.296;2022-07-29T06:26:48;18.30;99.90
16313;DHT22;8265;52.622;13.296;2022-07-29T06:32:09;18.50;99.90
16313;DHT22;8265;52.622;13.296;2022-07-29T06:37:30;18.30;99.90
16313;DHT22;8265;52.622;13.296;2022-07-29T06:42:51;18.20;99.90
16313;DHT22;8265;52.622;13.296;2022-07-29T06:48:12;18.30;99.90
16313;DHT22;8265;52.622;13.296;2022-07-29T06:53:33;18.50;99.90
16313;DHT22;8265;52.622;13.296;2022-07-29T06:58:54;18.60;99.90
16313;DHT22;8265;52.622;13.296;2022-07-29T07:04:15;18.80;99.90
16313;DHT22;8265;52.622;13.296;2022-07-29T07:09:36;19.00;99.90
16313;DHT22;8265;52.622;13.296;2022-07-29T07:14:57;19.10;99.90
16313;DHT22;8265;52.622;13.296;2022-07-29T07:20:18;19.30;99.90
16313;DHT22;8265;52.622;13.296;2022-07-29T07:25:39;19.50;99.90
16313;DHT22;8265;52.622;13.296;2022-07-29T07:31:00;19.60;99.90
16313;DHT22;8265;52.622;13.296;2022-07-29T07:36:21;19.80;99.90
16313;DHT22;8265;52.622;13.296;2022-07-29T07:41:42;20.00;99.90
16313;DHT22;8265;52.622;13.296;2022-07-29T07:47:03;20.30;99.90
16313;DHT22;8265;52.622;13.296;2022-07-29T07:52:24;20.70;99.90
16313;DHT22;8265;52.622;13.296;2022-07-29T07:57:45;20.90;99.90
16313;DHT22;8265;52.622;13.296;2022-07-29T08:03:06;20.90;99.90
16313;DHT22;8265;52.622;13.296;2022-07-29T08:08:26;21.10;99.90
16313;DHT22;8265;52.622;13.296;2022-07-29T08:13:47;21.20;99.90
16313;DHT22;8265;52.622;13.296;2022-07-29T08:19:09;21.20;99.90
16313;DHT22;8265;52.622;13.296;2022-07-29T08:24:29;21.40;99.90
16313;DHT22;8265;52.622;13.296;2022-07-29T08:29:50;21.80;99.90
16313;DHT22;8265;52.622;13.296;2022-07-29T08:35:11;22.00;99.90
16313;DHT22;8265;52.622;13.296;2022-07-29T08:40:32;22.20;99.90
16313;DHT22;8265;52.622;13.296;2022-07-29T08:45:53;22.60;99.90
16313;DHT22;8265;52.622;13.296;2022-07-29T08:51:15;22.90;99.90
16313;DHT22;8265;52.622;13.296;2022-07-29T08:56:35;23.20;99.90
16313;DHT22;8265;52.622;13.296;2022-07-29T09:01:56;23.70;99.90
16313;DHT22;8265;52.622;13.296;2022-07-29T09:07:18;24.20;99.90
16313;DHT22;8265;52.622;13.296;2022-07-29T09:12:38;24.60;99.90
16313;DHT22;8265;52.622;13.296;2022-07-29T09:17:59;24.70;99.90
16313;DHT22;8265;52.622;13.296;2022-07-29T09:23:20;24.90;99.90
16313;DHT22;8265;52.622;13.296;2022-07-29T09:28:43;24.80;98.10
16313;DHT22;8265;52.622;13.296;2022-07-29T09:34:02;25.00;97.40
16313;DHT22;8265;52.622;13.296;2022-07-29T09:39:28;25.40;96.40
16313;DHT22;8265;52.622;13.296;2022-07-29T09:44:45;25.60;93.80
16313;DHT22;8265;52.622;13.296;2022-07-29T09:50:06;25.70;93.50
16313;DHT22;8265;52.622;13.296;2022-07-29T09:55:26;26.10;92.40
16313;DHT22;8265;52.622;13.296;2022-07-29T10:00:47;26.20;91.10
16313;DHT22;8265;52.622;13.296;2022-07-29T10:06:09;26.20;89.70
16313;DHT22;8265;52.622;13.296;2022-07-29T10:11:29;26.30;88.40
16313;DHT22;8265;52.622;13.296;2022-07-29T10:16:50;26.60;87.40
16313;DHT22;8265;52.622;13.296;2022-07-29T10:22:11;26.50;85.60
16313;DHT22;8265;52.622;13.296;2022-07-29T10:27:32;26.30;84.40
16313;DHT22;8265;52.622;13.296;2022-07-29T10:33:18;26.20;86.60
16313;DHT22;8265;52.622;13.296;2022-07-29T10:38:42;26.40;87.90
16313;DHT22;8265;52.622;13.296;2022-07-29T10:43:36;26.60;87.60
16313;DHT22;8265;52.622;13.296;2022-07-29T10:49:08;26.60;86.70
16313;DHT22;8265;52.622;13.296;2022-07-29T10:54:16;26.80;84.00
16313;DHT22;8265;52.622;13.296;2022-07-29T10:59:37;26.70;84.90
16313;DHT22;8265;52.622;13.296;2022-07-29T11:05:02;27.50;84.00
16313;DHT22;8265;52.622;13.296;2022-07-29T11:10:23;27.60;80.30
16313;DHT22;8265;52.622;13.296;2022-07-29T11:15:53;27.90;80.80
16313;DHT22;8265;52.622;13.296;2022-07-29T11:21:01;28.10;79.70
16313;DHT22;8265;52.622;13.296;2022-07-29T11:26:22;27.70;79.70
16313;DHT22;8265;52.622;13.296;2022-07-29T11:31:45;27.90;80.80
16313;DHT22;8265;52.622;13.296;2022-07-29T11:37:23;28.20;79.40
16313;DHT22;8265;52.622;13.296;2022-07-29T11:42:44;28.40;79.30
16313;DHT22;8265;52.622;13.296;2022-07-29T11:47:50;28.20;79.10
16313;DHT22;8265;52.622;13.296;2022-07-29T11:53:12;28.20;78.70
16313;DHT22;8265;52.622;13.296;2022-07-29T11:58:28;28.20;78.00
16313;DHT22;8265;52.622;13.296;2022-07-29T12:03:49;27.80;79.70
16313;DHT22;8265;52.622;13.296;2022-07-29T12:09:10;28.10;79.60
16313;DHT22;8265;52.622;13.296;2022-07-29T12:14:32;28.20;78.70
16313;DHT22;8265;52.622;13.296;2022-07-29T12:19:52;28.80;79.40
16313;DHT22;8265;52.622;13.296;2022-07-29T12:25:13;29.30;78.30
16313;DHT22;8265;52.622;13.296;2022-07-29T12:30:39;29.50;76.70
16313;DHT22;8265;52.622;13.296;2022-07-29T12:35:56;29.40;76.00
16313;DHT22;8265;52.622;13.296;2022-07-29T12:41:16;29.70;75.90
16313;DHT22;8265;52.622;13.296;2022-07-29T12:46:37;30.20;77.60
16313;DHT22;8265;52.622;13.296;2022-07-29T12:51:58;30.00;76.40
16313;DHT22;8265;52.622;13.296;2022-07-29T12:57:18;29.80;76.80
16313;DHT22;8265;52.622;13.296;2022-07-29T13:02:40;30.00;78.60
16313;DHT22;8265;52.622;13.296;2022-07-29T13:08:12;30.20;78.00
16313;DHT22;8265;52.622;13.296;2022-07-29T13:13:21;29.60;78.10
16313;DHT22;8265;52.622;13.296;2022-07-29T13:18:42;29.90;80.00
16313;DHT22;8265;52.622;13.296;2022-07-29T13:24:04;30.60;77.30
16313;DHT22;8265;52.622;13.296;2022-07-29T13:29:24;31.30;75.80
16313;DHT22;8265;52.622;13.296;2022-07-29T13:34:45;31.70;75.40
16313;DHT22;8265;52.622;13.296;2022-07-29T13:40:07;31.40;76.00
16313;DHT22;8265;52.622;13.296;2022-07-29T13:45:27;31.00;76.30
16313;DHT22;8265;52.622;13.296;2022-07-29T13:50:48;30.60;76.90
16313;DHT22;8265;52.622;13.296;2022-07-29T13:56:09;31.30;76.70
16313;DHT22;8265;52.622;13.296;2022-07-29T14:01:30;32.40;73.70
16313;DHT22;8265;52.622;13.296;2022-07-29T14:06:51;32.60;72.60
16313;DHT22;8265;52.622;13.296;2022-07-29T14:12:12;32.30;72.30
16313;DHT22;8265;52.622;13.296;2022-07-29T14:17:33;31.80;73.40
16313;DHT22;8265;52.622;13.296;2022-07-29T14:22:54;30.50;76.10
16313;DHT22;8265;52.622;13.296;2022-07-29T14:28:15;29.40;80.20
16313;DHT22;8265;52.622;13.296;2022-07-29T14:33:36;28.70;80.60
16313;DHT22;8265;52.622;13.296;2022-07-29T14:38:57;30.50;79.80
16313;DHT22;8265;52.622;13.296;2022-07-29T14:44:18;29.90;78.30
16313;DHT22;8265;52.622;13.296;2022-07-29T14:49:39;31.30;74.90
16313;DHT22;8265;52.622;13.296;2022-07-29T14:55:00;30.40;78.80
16313;DHT22;8265;52.622;13.296;2022-07-29T15:00:21;32.10;74.20
16313;DHT22;8265;52.622;13.296;2022-07-29T15:05:42;32.30;73.10
16313;DHT22;8265;52.622;13.296;2022-07-29T15:11:03;32.50;73.10
16313;DHT22;8265;52.622;13.296;2022-07-29T15:16:23;32.60;73.80
16313;DHT22;8265;52.622;13.296;2022-07-29T15:21:44;32.80;71.80
16313;DHT22;8265;52.622;13.296;2022-07-29T15:27:05;32.00;72.70
16313;DHT22;8265;52.622;13.296;2022-07-29T15:32:26;31.40;73.00
16313;DHT22;8265;52.622;13.296;2022-07-29T15:37:47;31.80;75.10
16313;DHT22;8265;52.622;13.296;2022-07-29T15:43:08;32.70;72.40
16313;DHT22;8265;52.622;13.296;2022-07-29T15:48:29;32.70;70.60
16313;DHT22;8265;52.622;13.296;2022-07-29T15:53:50;31.30;71.30
16313;DHT22;8265;52.622;13.296;2022-07-29T15:59:11;30.20;75.60
16313;DHT22;8265;52.622;13.296;2022-07-29T16:04:32;29.30;76.50
16313;DHT22;8265;52.622;13.296;2022-07-29T16:09:53;28.30;80.10
16313;DHT22;8265;52.622;13.296;2022-07-29T16:15:14;28.00;78.60
16313;DHT22;8265;52.622;13.296;2022-07-29T16:20:35;27.90;80.60
16313;DHT22;8265;52.622;13.296;2022-07-29T16:25:56;28.20;81.20
16313;DHT22;8265;52.622;13.296;2022-07-29T16:31:17;29.60;78.20
16313;DHT22;8265;52.622;13.296;2022-07-29T16:36:38;29.50;76.10
16313;DHT22;8265;52.622;13.296;2022-07-29T16:41:59;29.10;76.30
16313;DHT22;8265;52.622;13.296;2022-07-29T16:47:20;28.40;78.10
16313;DHT22;8265;52.622;13.296;2022-07-29T16:52:41;27.80;82.00
16313;DHT22;8265;52.622;13.296;2022-07-29T16:58:02;27.50;84.00
16313;DHT22;8265;52.622;13.296;2022-07-29T17:03:23;27.80;84.10
16313;DHT22;8265;52.622;13.296;2022-07-29T17:08:44;27.80;82.20
16313;DHT22;8265;52.622;13.296;2022-07-29T17:14:05;27.40;82.50
16313;DHT22;8265;52.622;13.296;2022-07-29T17:19:26;27.30;81.50
16313;DHT22;8265;52.622;13.296;2022-07-29T17:24:47;27.40;82.70
16313;DHT22;8265;52.622;13.296;2022-07-29T17:30:10;28.00;81.90
16313;DHT22;8265;52.622;13.296;2022-07-29T17:35:29;27.80;79.00
16313;DHT22;8265;52.622;13.296;2022-07-29T17:40:50;27.20;80.30
16313;DHT22;8265;52.622;13.296;2022-07-29T17:46:11;26.80;81.30
16313;DHT22;8265;52.622;13.296;2022-07-29T17:51:32;26.40;83.40
16313;DHT22;8265;52.622;13.296;2022-07-29T17:56:53;26.30;82.40
16313;DHT22;8265;52.622;13.296;2022-07-29T18:02:13;25.80;83.60
16313;DHT22;8265;52.622;13.296;2022-07-29T18:07:34;25.40;84.20
16313;DHT22;8265;52.622;13.296;2022-07-29T18:12:56;25.30;86.30
16313;DHT22;8265;52.622;13.296;2022-07-29T18:18:16;25.00;86.10
16313;DHT22;8265;52.622;13.296;2022-07-29T18:23:37;24.90;86.40
16313;DHT22;8265;52.622;13.296;2022-07-29T18:28:58;24.80;86.40
16313;DHT22;8265;52.622;13.296;2022-07-29T18:34:19;24.60;88.30
16313;DHT22;8265;52.622;13.296;2022-07-29T18:39:40;24.20;89.50
16313;DHT22;8265;52.622;13.296;2022-07-29T18:45:03;23.90;90.30
16313;DHT22;8265;52.622;13.296;2022-07-29T18:50:22;23.80;90.20
16313;DHT22;8265;52.622;13.296;2022-07-29T18:55:43;23.50;90.10
16313;DHT22;8265;52.622;13.296;2022-07-29T19:01:04;23.30;90.30
16313;DHT22;8265;52.622;13.296;2022-07-29T19:06:25;23.10;90.90
16313;DHT22;8265;52.622;13.296;2022-07-29T19:11:48;23.00;91.20
16313;DHT22;8265;52.622;13.296;2022-07-29T19:17:07;22.90;91.40
16313;DHT22;8265;52.622;13.296;2022-07-29T19:22:28;22.60;91.50
16313;DHT22;8265;52.622;13.296;2022-07-29T19:27:49;22.50;91.70
16313;DHT22;8265;52.622;13.296;2022-07-29T19:33:10;22.30;92.10
16313;DHT22;8265;52.622;13.296;2022-07-29T19:38:31;22.20;92.40
16313;DHT22;8265;52.622;13.296;2022-07-29T19:43:52;22.00;93.00
16313;DHT22;8265;52.622;13.296;2022-07-29T19:49:13;21.80;92.70
16313;DHT22;8265;52.622;13.296;2022-07-29T19:54:34;21.80;93.10
16313;DHT22;8265;52.622;13.296;2022-07-29T19:59:55;21.60;93.70
16313;DHT22;8265;52.622;13.296;2022-07-29T20:05:16;21.40;93.90
16313;DHT22;8265;52.622;13.296;2022-07-29T20:10:40;21.30;94.50
16313;DHT22;8265;52.622;13.296;2022-07-29T20:15:58;21.20;94.50
16313;DHT22;8265;52.622;13.296;2022-07-29T20:21:19;21.10;94.50
16313;DHT22;8265;52.622;13.296;2022-07-29T20:26:40;21.00;95.00
16313;DHT22;8265;52.622;13.296;2022-07-29T20:32:01;20.80;95.40
16313;DHT22;8265;52.622;13.296;2022-07-29T20:37:22;20.80;94.90
16313;DHT22;8265;52.622;13.296;2022-07-29T20:42:43;20.70;95.00
16313;DHT22;8265;52.622;13.296;2022-07-29T20:48:04;20.70;95.20
16313;DHT22;8265;52.622;13.296;2022-07-29T20:53:25;20.60;95.60
16313;DHT22;8265;52.622;13.296;2022-07-29T20:58:46;20.60;95.60
16313;DHT22;8265;52.622;13.296;2022-07-29T21:04:07;20.60;95.80
16313;DHT22;8265;52.622;13.296;2022-07-29T21:09:28;20.60;95.60
16313;DHT22;8265;52.622;13.296;2022-07-29T21:14:48;20.70;94.60
16313;DHT22;8265;52.622;13.296;2022-07-29T21:20:11;20.70;94.50
16313;DHT22;8265;52.622;13.296;2022-07-29T21:25:31;20.80;94.30
16313;DHT22;8265;52.622;13.296;2022-07-29T21:30:52;20.60;95.40
16313;DHT22;8265;52.622;13.296;2022-07-29T21:36:13;20.50;95.00
16313;DHT22;8265;52.622;13.296;2022-07-29T21:41:33;20.50;94.90
16313;DHT22;8265;52.622;13.296;2022-07-29T21:46:55;20.50;95.00
16313;DHT22;8265;52.622;13.296;2022-07-29T21:52:15;20.40;95.50
16313;DHT22;8265;52.622;13.296;2022-07-29T21:57:37;20.40;95.40
16313;DHT22;8265;52.622;13.296;2022-07-29T22:02:58;20.30;95.20
16313;DHT22;8265;52.622;13.296;2022-07-29T22:08:18;20.20;95.20
16313;DHT22;8265;52.622;13.296;2022-07-29T22:13:39;20.20;95.60
16313;DHT22;8265;52.622;13.296;2022-07-29T22:19:00;20.00;96.10
16313;DHT22;8265;52.622;13.296;2022-07-29T22:24:21;20.00;96.00
16313;DHT22;8265;52.622;13.296;2022-07-29T22:29:42;20.00;96.30
16313;DHT22;8265;52.622;13.296;2022-07-29T22:35:04;19.80;96.20
16313;DHT22;8265;52.622;13.296;2022-07-29T22:40:24;19.70;96.70
16313;DHT22;8265;52.622;13.296;2022-07-29T22:45:45;19.70;96.50
16313;DHT22;8265;52.622;13.296;2022-07-29T22:51:06;19.70;97.00
16313;DHT22;8265;52.622;13.296;2022-07-29T22:56:27;19.50;96.90
16313;DHT22;8265;52.622;13.296;2022-07-29T23:01:48;19.60;96.50
16313;DHT22;8265;52.622;13.296;2022-07-29T23:07:09;19.60;96.50
16313;DHT22;8265;52.622;13.296;2022-07-29T23:12:30;19.60;96.60
16313;DHT22;8265;52.622;13.296;2022-07-29T23:17:51;19.50;96.50
16313;DHT22;8265;52.622;13.296;2022-07-29T23:23:12;19.40;97.30
16313;DHT22;8265;52.622;13.296;2022-07-29T23:28:33;19.30;97.50
16313;DHT22;8265;52.622;13.296;2022-07-29T23:33:54;19.30;97.50
16313;DHT22;8265;52.622;13.296;2022-07-29T23:39:15;19.10;97.60
16313;DHT22;8265;52.622;13.296;2022-07-29T23:44:36;19.00;97.40
16313;DHT22;8265;52.622;13.296;2022-07-29T23:49:57;18.90;98.20
16313;DHT22;8265;52.622;13.296;2022-07-29T23:55:18;18.70;98.60
